sensor_id;sensor_type;location;lat;lon;timestamp;P1;durP1;ratioP1;P2;durP2;ratioP2
12970;SDS011;6550;48.650;8.774;2023-04-24T00:00:35;7.57;;;4.33;;
12970;SDS011;6550;48.650;8.774;2023-04-24T00:03:02;5.40;;;3.70;;
12970;SDS011;6550;48.650;8.774;2023-04-24T00:05:29;5.23;;;2.97;;
12970;SDS011;6550;48.650;8.774;2023-04-24T00:07:56;6.17;;;2.70;;
12970;SDS011;6550;48.650;8.774;2023-04-24T00:10:24;6.22;;;2.80;;
12970;SDS011;6550;48.650;8.774;2023-04-24T00:12:53;2.67;;;1.80;;
12970;SDS011;6550;48.650;8.774;2023-04-24T00:15:20;3.00;;;1.30;;
12970;SDS011;6550;48.650;8.774;2023-04-24T00:17:49;3.20;;;1.70;;
12970;SDS011;6550;48.650;8.774;2023-04-24T00:20:17;4.10;;;1.70;;
12970;SDS011;6550;48.650;8.774;2023-04-24T00:22:45;2.70;;;1.65;;
12970;SDS011;6550;48.650;8.774;2023-04-24T00:25:11;1.83;;;1.30;;
12970;SDS011;6550;48.650;8.774;2023-04-24T00:27:43;1.90;;;1.10;;
12970;SDS011;6550;48.650;8.774;2023-04-24T00:30:10;3.43;;;1.37;;
12970;SDS011;6550;48.650;8.774;2023-04-24T00:32:39;1.00;;;0.90;;
12970;SDS011;6550;48.650;8.774;2023-04-24T00:35:06;1.33;;;1.23;;
12970;SDS011;6550;48.650;8.774;2023-04-24T00:37:35;1.17;;;0.70;;
12970;SDS011;6550;48.650;8.774;2023-04-24T00:40:07;2.13;;;0.80;;
12970;SDS011;6550;48.650;8.774;2023-04-24T00:42:36;1.00;;;0.70;;
12970;SDS011;6550;48.650;8.774;2023-04-24T00:45:03;1.17;;;0.50;;
12970;SDS011;6550;48.650;8.774;2023-04-24T00:47:32;2.23;;;0.90;;
12970;SDS011;6550;48.650;8.774;2023-04-24T00:50:05;1.53;;;0.70;;
12970;SDS011;6550;48.650;8.774;2023-04-24T00:52:32;3.43;;;0.77;;
12970;SDS011;6550;48.650;8.774;2023-04-24T00:54:59;1.50;;;0.80;;
12970;SDS011;6550;48.650;8.774;2023-04-24T00:57:26;1.80;;;0.70;;
12970;SDS011;6550;48.650;8.774;2023-04-24T00:59:53;2.57;;;0.80;;
12970;SDS011;6550;48.650;8.774;2023-04-24T01:02:21;6.33;;;0.90;;
12970;SDS011;6550;48.650;8.774;2023-04-24T01:04:50;2.67;;;0.63;;
12970;SDS011;6550;48.650;8.774;2023-04-24T01:07:19;5.40;;;0.57;;
12970;SDS011;6550;48.650;8.774;2023-04-24T01:09:49;1.97;;;0.73;;
12970;SDS011;6550;48.650;8.774;2023-04-24T01:12:19;0.77;;;0.60;;
12970;SDS011;6550;48.650;8.774;2023-04-24T01:14:46;3.70;;;0.67;;
12970;SDS011;6550;48.650;8.774;2023-04-24T01:17:15;1.00;;;0.50;;
12970;SDS011;6550;48.650;8.774;2023-04-24T01:19:42;2.07;;;0.43;;
12970;SDS011;6550;48.650;8.774;2023-04-24T01:22:13;0.97;;;0.60;;
12970;SDS011;6550;48.650;8.774;2023-04-24T01:24:43;1.33;;;0.50;;
12970;SDS011;6550;48.650;8.774;2023-04-24T01:27:10;2.17;;;0.63;;
12970;SDS011;6550;48.650;8.774;2023-04-24T01:29:37;1.40;;;0.80;;
12970;SDS011;6550;48.650;8.774;2023-04-24T01:32:05;4.90;;;0.77;;
12970;SDS011;6550;48.650;8.774;2023-04-24T01:34:32;1.73;;;1.00;;
12970;SDS011;6550;48.650;8.774;2023-04-24T01:37:00;4.07;;;0.97;;
12970;SDS011;6550;48.650;8.774;2023-04-24T01:39:31;8.90;;;0.70;;
12970;SDS011;6550;48.650;8.774;2023-04-24T01:41:59;4.33;;;0.60;;
12970;SDS011;6550;48.650;8.774;2023-04-24T01:44:31;2.40;;;0.70;;
12970;SDS011;6550;48.650;8.774;2023-04-24T01:47:00;5.47;;;0.90;;
12970;SDS011;6550;48.650;8.774;2023-04-24T01:49:27;1.27;;;0.57;;
12970;SDS011;6550;48.650;8.774;2023-04-24T01:51:54;4.93;;;0.80;;
12970;SDS011;6550;48.650;8.774;2023-04-24T01:54:20;1.20;;;0.40;;
12970;SDS011;6550;48.650;8.774;2023-04-24T01:56:49;1.43;;;0.60;;
12970;SDS011;6550;48.650;8.774;2023-04-24T01:59:16;2.60;;;0.50;;
12970;SDS011;6550;48.650;8.774;2023-04-24T02:01:46;0.37;;;0.30;;
12970;SDS011;6550;48.650;8.774;2023-04-24T02:04:13;0.63;;;0.57;;
12970;SDS011;6550;48.650;8.774;2023-04-24T02:06:42;1.13;;;0.60;;
12970;SDS011;6550;48.650;8.774;2023-04-24T02:09:09;4.07;;;1.57;;
12970;SDS011;6550;48.650;8.774;2023-04-24T02:11:40;5.70;;;0.87;;
12970;SDS011;6550;48.650;8.774;2023-04-24T02:14:07;2.00;;;0.40;;
12970;SDS011;6550;48.650;8.774;2023-04-24T02:16:36;1.58;;;0.70;;
12970;SDS011;6550;48.650;8.774;2023-04-24T02:19:03;1.00;;;0.30;;
12970;SDS011;6550;48.650;8.774;2023-04-24T02:21:30;1.17;;;0.50;;
12970;SDS011;6550;48.650;8.774;2023-04-24T02:23:59;0.40;;;0.40;;
12970;SDS011;6550;48.650;8.774;2023-04-24T02:26:31;2.57;;;0.70;;
12970;SDS011;6550;48.650;8.774;2023-04-24T02:28:57;1.47;;;0.53;;
12970;SDS011;6550;48.650;8.774;2023-04-24T02:31:24;3.80;;;0.70;;
12970;SDS011;6550;48.650;8.774;2023-04-24T02:33:51;1.27;;;0.43;;
12970;SDS011;6550;48.650;8.774;2023-04-24T02:36:20;2.43;;;0.70;;
12970;SDS011;6550;48.650;8.774;2023-04-24T02:38:52;1.70;;;0.80;;
12970;SDS011;6550;48.650;8.774;2023-04-24T02:41:21;1.60;;;0.60;;
12970;SDS011;6550;48.650;8.774;2023-04-24T02:43:48;4.63;;;0.97;;
12970;SDS011;6550;48.650;8.774;2023-04-24T02:46:17;2.23;;;0.73;;
12970;SDS011;6550;48.650;8.774;2023-04-24T02:48:43;1.30;;;0.60;;
12970;SDS011;6550;48.650;8.774;2023-04-24T02:51:10;2.30;;;0.60;;
12970;SDS011;6550;48.650;8.774;2023-04-24T02:53:39;0.97;;;0.53;;
12970;SDS011;6550;48.650;8.774;2023-04-24T02:56:08;2.63;;;0.70;;
12970;SDS011;6550;48.650;8.774;2023-04-24T02:58:38;0.93;;;0.50;;
12970;SDS011;6550;48.650;8.774;2023-04-24T03:01:05;0.93;;;0.53;;
12970;SDS011;6550;48.650;8.774;2023-04-24T03:03:36;6.03;;;0.90;;
12970;SDS011;6550;48.650;8.774;2023-04-24T03:06:06;0.60;;;0.50;;
12970;SDS011;6550;48.650;8.774;2023-04-24T03:08:34;3.43;;;0.70;;
12970;SDS011;6550;48.650;8.774;2023-04-24T03:11:03;1.83;;;0.90;;
12970;SDS011;6550;48.650;8.774;2023-04-24T03:13:32;0.90;;;0.47;;
12970;SDS011;6550;48.650;8.774;2023-04-24T03:15:59;0.60;;;0.40;;
12970;SDS011;6550;48.650;8.774;2023-04-24T03:18:25;0.77;;;0.70;;
12970;SDS011;6550;48.650;8.774;2023-04-24T03:20:52;9.70;;;0.90;;
12970;SDS011;6550;48.650;8.774;2023-04-24T03:23:19;3.30;;;0.43;;
12970;SDS011;6550;48.650;8.774;2023-04-24T03:25:46;1.50;;;0.63;;
12970;SDS011;6550;48.650;8.774;2023-04-24T03:28:14;0.53;;;0.53;;
12970;SDS011;6550;48.650;8.774;2023-04-24T03:30:43;0.87;;;0.47;;
12970;SDS011;6550;48.650;8.774;2023-04-24T03:33:10;2.42;;;0.50;;
12970;SDS011;6550;48.650;8.774;2023-04-24T03:35:37;3.73;;;0.80;;
12970;SDS011;6550;48.650;8.774;2023-04-24T03:38:04;2.33;;;0.73;;
12970;SDS011;6550;48.650;8.774;2023-04-24T03:40:33;6.60;;;0.83;;
12970;SDS011;6550;48.650;8.774;2023-04-24T03:43:00;8.83;;;1.00;;
12970;SDS011;6550;48.650;8.774;2023-04-24T03:45:32;6.10;;;0.80;;
12970;SDS011;6550;48.650;8.774;2023-04-24T03:48:01;6.43;;;0.80;;
12970;SDS011;6550;48.650;8.774;2023-04-24T03:50:28;3.57;;;1.00;;
12970;SDS011;6550;48.650;8.774;2023-04-24T03:52:55;8.43;;;1.27;;
12970;SDS011;6550;48.650;8.774;2023-04-24T03:55:24;2.23;;;0.77;;
12970;SDS011;6550;48.650;8.774;2023-04-24T03:57:51;7.80;;;0.77;;
12970;SDS011;6550;48.650;8.774;2023-04-24T04:00:17;9.80;;;0.70;;
12970;SDS011;6550;48.650;8.774;2023-04-24T04:02:47;4.90;;;1.20;;
12970;SDS011;6550;48.650;8.774;2023-04-24T04:05:16;12.43;;;1.60;;
12970;SDS011;6550;48.650;8.774;2023-04-24T04:07:45;6.90;;;1.05;;
12970;SDS011;6550;48.650;8.774;2023-04-24T04:10:14;2.50;;;0.90;;
12970;SDS011;6550;48.650;8.774;2023-04-24T04:12:43;11.43;;;1.13;;
12970;SDS011;6550;48.650;8.774;2023-04-24T04:15:09;3.30;;;0.90;;
12970;SDS011;6550;48.650;8.774;2023-04-24T04:17:36;9.30;;;1.87;;
12970;SDS011;6550;48.650;8.774;2023-04-24T04:20:04;16.27;;;1.53;;
12970;SDS011;6550;48.650;8.774;2023-04-24T04:22:40;5.90;;;1.30;;
12970;SDS011;6550;48.650;8.774;2023-04-24T04:25:09;29.27;;;1.50;;
12970;SDS011;6550;48.650;8.774;2023-04-24T04:27:39;20.37;;;2.07;;
12970;SDS011;6550;48.650;8.774;2023-04-24T04:30:08;24.33;;;1.60;;
12970;SDS011;6550;48.650;8.774;2023-04-24T04:32:35;11.43;;;1.37;;
12970;SDS011;6550;48.650;8.774;2023-04-24T04:35:05;8.83;;;1.70;;
12970;SDS011;6550;48.650;8.774;2023-04-24T04:37:32;19.73;;;1.70;;
12970;SDS011;6550;48.650;8.774;2023-04-24T04:40:02;48.33;;;2.92;;
12970;SDS011;6550;48.650;8.774;2023-04-24T04:42:37;73.50;;;3.67;;
12970;SDS011;6550;48.650;8.774;2023-04-24T04:45:11;49.67;;;3.43;;
12970;SDS011;6550;48.650;8.774;2023-04-24T04:47:38;51.30;;;2.53;;
12970;SDS011;6550;48.650;8.774;2023-04-24T04:50:10;60.23;;;2.83;;
12970;SDS011;6550;48.650;8.774;2023-04-24T04:52:37;41.10;;;3.60;;
12970;SDS011;6550;48.650;8.774;2023-04-24T04:55:04;34.57;;;2.47;;
12970;SDS011;6550;48.650;8.774;2023-04-24T04:57:31;28.20;;;2.30;;
12970;SDS011;6550;48.650;8.774;2023-04-24T04:59:58;21.87;;;2.37;;
12970;SDS011;6550;48.650;8.774;2023-04-24T05:02:27;25.10;;;2.47;;
12970;SDS011;6550;48.650;8.774;2023-04-24T05:04:54;35.07;;;1.93;;
12970;SDS011;6550;48.650;8.774;2023-04-24T05:07:26;16.97;;;1.83;;
12970;SDS011;6550;48.650;8.774;2023-04-24T05:09:53;17.40;;;1.97;;
12970;SDS011;6550;48.650;8.774;2023-04-24T05:12:22;21.38;;;2.30;;
12970;SDS011;6550;48.650;8.774;2023-04-24T05:14:49;77.17;;;4.63;;
12970;SDS011;6550;48.650;8.774;2023-04-24T05:17:16;65.33;;;3.90;;
12970;SDS011;6550;48.650;8.774;2023-04-24T05:19:43;42.37;;;3.30;;
12970;SDS011;6550;48.650;8.774;2023-04-24T05:22:11;43.10;;;3.07;;
12970;SDS011;6550;48.650;8.774;2023-04-24T05:24:38;19.33;;;2.00;;
12970;SDS011;6550;48.650;8.774;2023-04-24T05:27:05;15.33;;;1.80;;
12970;SDS011;6550;48.650;8.774;2023-04-24T05:29:32;27.20;;;2.73;;
12970;SDS011;6550;48.650;8.774;2023-04-24T05:32:01;10.20;;;1.43;;
12970;SDS011;6550;48.650;8.774;2023-04-24T05:34:28;15.93;;;1.50;;
12970;SDS011;6550;48.650;8.774;2023-04-24T05:36:56;9.37;;;1.70;;
12970;SDS011;6550;48.650;8.774;2023-04-24T05:39:28;7.00;;;1.23;;
12970;SDS011;6550;48.650;8.774;2023-04-24T05:41:54;7.07;;;1.43;;
12970;SDS011;6550;48.650;8.774;2023-04-24T05:44:24;3.33;;;1.10;;
12970;SDS011;6550;48.650;8.774;2023-04-24T05:46:55;4.80;;;1.03;;
12970;SDS011;6550;48.650;8.774;2023-04-24T05:49:24;5.47;;;1.20;;
12970;SDS011;6550;48.650;8.774;2023-04-24T05:51:53;3.33;;;1.00;;
12970;SDS011;6550;48.650;8.774;2023-04-24T05:54:20;11.37;;;1.40;;
12970;SDS011;6550;48.650;8.774;2023-04-24T05:56:49;7.67;;;1.50;;
12970;SDS011;6550;48.650;8.774;2023-04-24T05:59:17;18.97;;;2.10;;
12970;SDS011;6550;48.650;8.774;2023-04-24T06:01:43;14.48;;;1.90;;
12970;SDS011;6550;48.650;8.774;2023-04-24T06:04:11;18.03;;;1.80;;
12970;SDS011;6550;48.650;8.774;2023-04-24T06:06:41;17.47;;;1.80;;
12970;SDS011;6550;48.650;8.774;2023-04-24T06:09:10;11.53;;;1.60;;
12970;SDS011;6550;48.650;8.774;2023-04-24T06:11:37;9.57;;;1.43;;
12970;SDS011;6550;48.650;8.774;2023-04-24T06:14:04;13.30;;;1.40;;
12970;SDS011;6550;48.650;8.774;2023-04-24T06:16:31;14.57;;;1.40;;
12970;SDS011;6550;48.650;8.774;2023-04-24T06:18:58;9.50;;;1.30;;
12970;SDS011;6550;48.650;8.774;2023-04-24T06:21:29;4.63;;;1.10;;
12970;SDS011;6550;48.650;8.774;2023-04-24T06:24:01;6.67;;;1.30;;
12970;SDS011;6550;48.650;8.774;2023-04-24T06:26:28;2.53;;;1.00;;
12970;SDS011;6550;48.650;8.774;2023-04-24T06:28:57;2.63;;;0.83;;
12970;SDS011;6550;48.650;8.774;2023-04-24T06:31:25;1.33;;;0.87;;
12970;SDS011;6550;48.650;8.774;2023-04-24T06:33:57;3.23;;;1.10;;
12970;SDS011;6550;48.650;8.774;2023-04-24T06:36:23;4.05;;;1.00;;
12970;SDS011;6550;48.650;8.774;2023-04-24T06:38:50;2.63;;;1.30;;
12970;SDS011;6550;48.650;8.774;2023-04-24T06:41:17;3.17;;;0.80;;
12970;SDS011;6550;48.650;8.774;2023-04-24T06:43:46;5.63;;;1.23;;
12970;SDS011;6550;48.650;8.774;2023-04-24T06:46:13;3.80;;;1.03;;
12970;SDS011;6550;48.650;8.774;2023-04-24T06:48:40;10.67;;;2.90;;
12970;SDS011;6550;48.650;8.774;2023-04-24T06:51:07;5.20;;;1.20;;
12970;SDS011;6550;48.650;8.774;2023-04-24T06:53:36;11.37;;;1.67;;
12970;SDS011;6550;48.650;8.774;2023-04-24T06:56:03;2.03;;;1.00;;
12970;SDS011;6550;48.650;8.774;2023-04-24T06:58:32;4.13;;;1.20;;
12970;SDS011;6550;48.650;8.774;2023-04-24T07:01:01;4.60;;;0.90;;
12970;SDS011;6550;48.650;8.774;2023-04-24T07:03:28;7.83;;;1.43;;
12970;SDS011;6550;48.650;8.774;2023-04-24T07:05:55;7.70;;;1.07;;
12970;SDS011;6550;48.650;8.774;2023-04-24T07:08:24;4.20;;;1.30;;
12970;SDS011;6550;48.650;8.774;2023-04-24T07:10:51;2.30;;;1.27;;
12970;SDS011;6550;48.650;8.774;2023-04-24T07:13:18;2.33;;;1.10;;
12970;SDS011;6550;48.650;8.774;2023-04-24T07:15:48;2.27;;;1.27;;
12970;SDS011;6550;48.650;8.774;2023-04-24T07:18:17;7.23;;;1.37;;
12970;SDS011;6550;48.650;8.774;2023-04-24T07:20:44;8.98;;;1.20;;
12970;SDS011;6550;48.650;8.774;2023-04-24T07:23:13;4.27;;;1.10;;
12970;SDS011;6550;48.650;8.774;2023-04-24T07:25:42;5.13;;;1.50;;
12970;SDS011;6550;48.650;8.774;2023-04-24T07:28:11;10.23;;;1.40;;
12970;SDS011;6550;48.650;8.774;2023-04-24T07:30:38;18.60;;;1.63;;
12970;SDS011;6550;48.650;8.774;2023-04-24T07:33:05;5.03;;;1.20;;
12970;SDS011;6550;48.650;8.774;2023-04-24T07:35:37;4.40;;;1.63;;
12970;SDS011;6550;48.650;8.774;2023-04-24T07:38:06;1.10;;;1.03;;
12970;SDS011;6550;48.650;8.774;2023-04-24T07:40:33;5.32;;;1.23;;
12970;SDS011;6550;48.650;8.774;2023-04-24T07:43:04;14.37;;;1.37;;
12970;SDS011;6550;48.650;8.774;2023-04-24T07:45:31;4.20;;;1.10;;
12970;SDS011;6550;48.650;8.774;2023-04-24T07:48:03;2.83;;;1.00;;
12970;SDS011;6550;48.650;8.774;2023-04-24T07:50:30;5.03;;;1.67;;
12970;SDS011;6550;48.650;8.774;2023-04-24T07:52:57;7.20;;;1.40;;
12970;SDS011;6550;48.650;8.774;2023-04-24T07:55:26;6.10;;;1.00;;
12970;SDS011;6550;48.650;8.774;2023-04-24T07:57:55;7.77;;;1.47;;
12970;SDS011;6550;48.650;8.774;2023-04-24T08:00:22;6.60;;;1.20;;
12970;SDS011;6550;48.650;8.774;2023-04-24T08:02:49;6.40;;;1.20;;
12970;SDS011;6550;48.650;8.774;2023-04-24T08:05:16;6.03;;;1.00;;
12970;SDS011;6550;48.650;8.774;2023-04-24T08:07:43;4.20;;;1.37;;
12970;SDS011;6550;48.650;8.774;2023-04-24T08:10:12;5.90;;;1.57;;
12970;SDS011;6550;48.650;8.774;2023-04-24T08:12:39;1.60;;;0.90;;
12970;SDS011;6550;48.650;8.774;2023-04-24T08:15:09;1.57;;;0.80;;
12970;SDS011;6550;48.650;8.774;2023-04-24T08:17:36;5.10;;;1.07;;
12970;SDS011;6550;48.650;8.774;2023-04-24T08:20:03;2.27;;;1.03;;
12970;SDS011;6550;48.650;8.774;2023-04-24T08:22:31;1.60;;;0.90;;
12970;SDS011;6550;48.650;8.774;2023-04-24T08:25:01;2.17;;;1.05;;
12970;SDS011;6550;48.650;8.774;2023-04-24T08:27:30;1.50;;;0.97;;
12970;SDS011;6550;48.650;8.774;2023-04-24T08:29:57;15.03;;;1.60;;
12970;SDS011;6550;48.650;8.774;2023-04-24T08:32:25;10.20;;;1.10;;
12970;SDS011;6550;48.650;8.774;2023-04-24T08:34:58;4.67;;;1.50;;
12970;SDS011;6550;48.650;8.774;2023-04-24T08:37:27;3.13;;;1.03;;
12970;SDS011;6550;48.650;8.774;2023-04-24T08:39:54;9.47;;;1.20;;
12970;SDS011;6550;48.650;8.774;2023-04-24T08:42:21;28.13;;;1.80;;
12970;SDS011;6550;48.650;8.774;2023-04-24T08:44:50;21.07;;;1.40;;
12970;SDS011;6550;48.650;8.774;2023-04-24T08:47:17;7.40;;;1.27;;
12970;SDS011;6550;48.650;8.774;2023-04-24T08:49:46;4.97;;;1.00;;
12970;SDS011;6550;48.650;8.774;2023-04-24T08:52:19;2.10;;;1.03;;
12970;SDS011;6550;48.650;8.774;2023-04-24T08:54:49;2.13;;;1.20;;
12970;SDS011;6550;48.650;8.774;2023-04-24T08:57:18;1.10;;;0.90;;
12970;SDS011;6550;48.650;8.774;2023-04-24T08:59:45;1.10;;;1.00;;
12970;SDS011;6550;48.650;8.774;2023-04-24T09:02:13;2.90;;;1.23;;
12970;SDS011;6550;48.650;8.774;2023-04-24T09:04:41;1.67;;;1.10;;
12970;SDS011;6550;48.650;8.774;2023-04-24T09:07:10;2.17;;;1.13;;
12970;SDS011;6550;48.650;8.774;2023-04-24T09:09:40;1.43;;;1.00;;
12970;SDS011;6550;48.650;8.774;2023-04-24T09:12:10;1.83;;;0.90;;
12970;SDS011;6550;48.650;8.774;2023-04-24T09:14:37;1.80;;;1.10;;
12970;SDS011;6550;48.650;8.774;2023-04-24T09:17:11;1.67;;;1.10;;
12970;SDS011;6550;48.650;8.774;2023-04-24T09:19:38;2.73;;;0.83;;
12970;SDS011;6550;48.650;8.774;2023-04-24T09:22:07;4.20;;;0.90;;
12970;SDS011;6550;48.650;8.774;2023-04-24T09:24:35;3.88;;;0.80;;
12970;SDS011;6550;48.650;8.774;2023-04-24T09:27:02;1.00;;;0.60;;
12970;SDS011;6550;48.650;8.774;2023-04-24T09:29:30;3.37;;;0.80;;
12970;SDS011;6550;48.650;8.774;2023-04-24T09:31:58;2.20;;;0.63;;
12970;SDS011;6550;48.650;8.774;2023-04-24T09:34:43;1.53;;;0.50;;
12970;SDS011;6550;48.650;8.774;2023-04-24T09:37:29;1.27;;;0.70;;
12970;SDS011;6550;48.650;8.774;2023-04-24T09:40:12;3.93;;;0.90;;
12970;SDS011;6550;48.650;8.774;2023-04-24T09:42:54;1.50;;;0.97;;
12970;SDS011;6550;48.650;8.774;2023-04-24T09:45:31;0.83;;;0.70;;
12970;SDS011;6550;48.650;8.774;2023-04-24T09:48:02;3.33;;;0.80;;
12970;SDS011;6550;48.650;8.774;2023-04-24T09:50:30;1.03;;;0.77;;
12970;SDS011;6550;48.650;8.774;2023-04-24T09:53:04;0.70;;;0.60;;
12970;SDS011;6550;48.650;8.774;2023-04-24T09:55:33;1.20;;;0.70;;
12970;SDS011;6550;48.650;8.774;2023-04-24T09:58:14;1.17;;;0.77;;
12970;SDS011;6550;48.650;8.774;2023-04-24T10:00:41;0.63;;;0.63;;
12970;SDS011;6550;48.650;8.774;2023-04-24T10:03:08;1.10;;;0.67;;
12970;SDS011;6550;48.650;8.774;2023-04-24T10:05:37;1.43;;;0.73;;
12970;SDS011;6550;48.650;8.774;2023-04-24T10:08:11;0.97;;;0.60;;
12970;SDS011;6550;48.650;8.774;2023-04-24T10:10:39;2.43;;;0.60;;
12970;SDS011;6550;48.650;8.774;2023-04-24T10:13:13;1.47;;;0.70;;
12970;SDS011;6550;48.650;8.774;2023-04-24T10:15:43;4.40;;;0.70;;
12970;SDS011;6550;48.650;8.774;2023-04-24T10:18:10;0.70;;;0.70;;
12970;SDS011;6550;48.650;8.774;2023-04-24T10:20:38;0.40;;;0.40;;
12970;SDS011;6550;48.650;8.774;2023-04-24T10:23:11;0.80;;;0.70;;
12970;SDS011;6550;48.650;8.774;2023-04-24T10:25:38;0.70;;;0.70;;
12970;SDS011;6550;48.650;8.774;2023-04-24T10:28:07;3.37;;;0.90;;
12970;SDS011;6550;48.650;8.774;2023-04-24T10:30:38;1.00;;;0.67;;
12970;SDS011;6550;48.650;8.774;2023-04-24T10:33:08;2.53;;;1.07;;
12970;SDS011;6550;48.650;8.774;2023-04-24T10:35:44;1.40;;;0.90;;
12970;SDS011;6550;48.650;8.774;2023-04-24T10:38:21;1.10;;;0.80;;
12970;SDS011;6550;48.650;8.774;2023-04-24T10:40:51;2.20;;;1.17;;
12970;SDS011;6550;48.650;8.774;2023-04-24T10:43:18;4.10;;;0.70;;
12970;SDS011;6550;48.650;8.774;2023-04-24T10:46:00;2.58;;;0.80;;
12970;SDS011;6550;48.650;8.774;2023-04-24T10:48:32;4.77;;;0.80;;
12970;SDS011;6550;48.650;8.774;2023-04-24T10:51:02;1.50;;;1.03;;
12970;SDS011;6550;48.650;8.774;2023-04-24T10:53:29;2.10;;;0.70;;
12970;SDS011;6550;48.650;8.774;2023-04-24T10:56:06;3.67;;;0.90;;
12970;SDS011;6550;48.650;8.774;2023-04-24T10:58:40;0.60;;;0.60;;
12970;SDS011;6550;48.650;8.774;2023-04-24T11:01:25;3.00;;;0.70;;
12970;SDS011;6550;48.650;8.774;2023-04-24T11:04:02;4.87;;;1.30;;
12970;SDS011;6550;48.650;8.774;2023-04-24T11:06:34;1.17;;;0.83;;
12970;SDS011;6550;48.650;8.774;2023-04-24T11:09:08;4.83;;;0.80;;
12970;SDS011;6550;48.650;8.774;2023-04-24T11:11:43;0.87;;;0.60;;
12970;SDS011;6550;48.650;8.774;2023-04-24T11:14:13;0.73;;;0.60;;
12970;SDS011;6550;48.650;8.774;2023-04-24T11:16:42;1.77;;;0.80;;
12970;SDS011;6550;48.650;8.774;2023-04-24T11:21:42;1.03;;;0.70;;
12970;SDS011;6550;48.650;8.774;2023-04-24T11:29:40;4.60;;;1.00;;
12970;SDS011;6550;48.650;8.774;2023-04-24T11:34:59;4.30;;;1.00;;
12970;SDS011;6550;48.650;8.774;2023-04-24T11:37:36;9.03;;;1.10;;
12970;SDS011;6550;48.650;8.774;2023-04-24T11:40:07;6.93;;;1.40;;
12970;SDS011;6550;48.650;8.774;2023-04-24T11:42:44;2.10;;;1.00;;
12970;SDS011;6550;48.650;8.774;2023-04-24T11:45:16;4.43;;;1.03;;
12970;SDS011;6550;48.650;8.774;2023-04-24T11:47:44;1.87;;;1.20;;
12970;SDS011;6550;48.650;8.774;2023-04-24T11:50:14;1.60;;;0.90;;
12970;SDS011;6550;48.650;8.774;2023-04-24T11:52:43;3.27;;;1.10;;
12970;SDS011;6550;48.650;8.774;2023-04-24T11:57:51;3.10;;;0.90;;
12970;SDS011;6550;48.650;8.774;2023-04-24T12:00:26;2.60;;;1.00;;
12970;SDS011;6550;48.650;8.774;2023-04-24T12:03:10;0.70;;;0.70;;
12970;SDS011;6550;48.650;8.774;2023-04-24T12:05:40;1.50;;;0.73;;
12970;SDS011;6550;48.650;8.774;2023-04-24T12:08:07;0.80;;;0.80;;
12970;SDS011;6550;48.650;8.774;2023-04-24T12:10:37;1.27;;;0.63;;
12970;SDS011;6550;48.650;8.774;2023-04-24T12:13:03;1.93;;;0.80;;
12970;SDS011;6550;48.650;8.774;2023-04-24T12:15:31;1.43;;;0.70;;
12970;SDS011;6550;48.650;8.774;2023-04-24T12:18:03;2.97;;;0.70;;
12970;SDS011;6550;48.650;8.774;2023-04-24T12:20:31;2.37;;;0.60;;
12970;SDS011;6550;48.650;8.774;2023-04-24T12:22:59;0.80;;;0.70;;
12970;SDS011;6550;48.650;8.774;2023-04-24T12:25:29;0.87;;;0.80;;
12970;SDS011;6550;48.650;8.774;2023-04-24T12:30:32;1.17;;;0.80;;
12970;SDS011;6550;48.650;8.774;2023-04-24T12:33:08;0.93;;;0.80;;
12970;SDS011;6550;48.650;8.774;2023-04-24T12:35:39;2.10;;;1.00;;
12970;SDS011;6550;48.650;8.774;2023-04-24T12:38:10;3.47;;;0.90;;
12970;SDS011;6550;48.650;8.774;2023-04-24T12:40:41;3.97;;;0.80;;
12970;SDS011;6550;48.650;8.774;2023-04-24T12:43:16;1.83;;;1.00;;
12970;SDS011;6550;48.650;8.774;2023-04-24T12:45:47;1.27;;;0.83;;
12970;SDS011;6550;48.650;8.774;2023-04-24T12:48:16;2.75;;;1.05;;
12970;SDS011;6550;48.650;8.774;2023-04-24T12:50:44;4.53;;;1.30;;
12970;SDS011;6550;48.650;8.774;2023-04-24T12:53:12;1.90;;;1.10;;
12970;SDS011;6550;48.650;8.774;2023-04-24T12:55:39;6.40;;;1.23;;
12970;SDS011;6550;48.650;8.774;2023-04-24T12:58:06;7.45;;;1.20;;
12970;SDS011;6550;48.650;8.774;2023-04-24T13:00:33;6.93;;;1.10;;
12970;SDS011;6550;48.650;8.774;2023-04-24T13:03:00;1.67;;;1.00;;
12970;SDS011;6550;48.650;8.774;2023-04-24T13:05:32;8.33;;;1.30;;
12970;SDS011;6550;48.650;8.774;2023-04-24T13:08:01;9.67;;;1.27;;
12970;SDS011;6550;48.650;8.774;2023-04-24T13:10:28;2.80;;;0.90;;
12970;SDS011;6550;48.650;8.774;2023-04-24T13:12:55;5.20;;;1.20;;
12970;SDS011;6550;48.650;8.774;2023-04-24T13:15:25;1.93;;;1.00;;
12970;SDS011;6550;48.650;8.774;2023-04-24T13:17:52;2.70;;;1.10;;
12970;SDS011;6550;48.650;8.774;2023-04-24T13:20:19;7.87;;;1.20;;
12970;SDS011;6550;48.650;8.774;2023-04-24T13:22:46;2.10;;;0.90;;
12970;SDS011;6550;48.650;8.774;2023-04-24T13:25:13;6.60;;;1.43;;
12970;SDS011;6550;48.650;8.774;2023-04-24T13:27:43;8.20;;;1.10;;
12970;SDS011;6550;48.650;8.774;2023-04-24T13:30:10;4.45;;;1.10;;
12970;SDS011;6550;48.650;8.774;2023-04-24T13:32:42;5.67;;;1.00;;
12970;SDS011;6550;48.650;8.774;2023-04-24T13:35:09;6.30;;;1.83;;
12970;SDS011;6550;48.650;8.774;2023-04-24T13:37:35;1.40;;;0.90;;
12970;SDS011;6550;48.650;8.774;2023-04-24T13:40:05;4.87;;;0.80;;
12970;SDS011;6550;48.650;8.774;2023-04-24T13:42:35;1.70;;;0.90;;
12970;SDS011;6550;48.650;8.774;2023-04-24T13:45:02;1.00;;;0.90;;
12970;SDS011;6550;48.650;8.774;2023-04-24T13:47:49;1.10;;;1.00;;
12970;SDS011;6550;48.650;8.774;2023-04-24T13:50:17;1.63;;;1.08;;
12970;SDS011;6550;48.650;8.774;2023-04-24T13:52:44;6.67;;;1.40;;
12970;SDS011;6550;48.650;8.774;2023-04-24T13:55:11;3.03;;;1.53;;
12970;SDS011;6550;48.650;8.774;2023-04-24T13:57:40;19.43;;;2.23;;
12970;SDS011;6550;48.650;8.774;2023-04-24T14:00:10;10.80;;;1.42;;
12970;SDS011;6550;48.650;8.774;2023-04-24T14:02:39;6.67;;;1.43;;
12970;SDS011;6550;48.650;8.774;2023-04-24T14:05:09;9.33;;;1.50;;
12970;SDS011;6550;48.650;8.774;2023-04-24T14:07:37;3.07;;;1.27;;
12970;SDS011;6550;48.650;8.774;2023-04-24T14:10:05;3.47;;;1.50;;
12970;SDS011;6550;48.650;8.774;2023-04-24T14:12:32;16.07;;;1.80;;
12970;SDS011;6550;48.650;8.774;2023-04-24T14:15:01;10.40;;;1.53;;
12970;SDS011;6550;48.650;8.774;2023-04-24T14:17:28;6.30;;;1.63;;
12970;SDS011;6550;48.650;8.774;2023-04-24T14:19:54;5.77;;;1.67;;
12970;SDS011;6550;48.650;8.774;2023-04-24T14:22:22;4.23;;;1.20;;
12970;SDS011;6550;48.650;8.774;2023-04-24T14:24:49;19.93;;;2.67;;
12970;SDS011;6550;48.650;8.774;2023-04-24T14:27:18;16.03;;;2.43;;
12970;SDS011;6550;48.650;8.774;2023-04-24T14:29:47;14.38;;;1.75;;
12970;SDS011;6550;48.650;8.774;2023-04-24T14:32:16;27.73;;;2.97;;
12970;SDS011;6550;48.650;8.774;2023-04-24T14:34:43;14.50;;;1.87;;
12970;SDS011;6550;48.650;8.774;2023-04-24T14:37:10;11.80;;;1.57;;
12970;SDS011;6550;48.650;8.774;2023-04-24T14:39:37;17.23;;;1.50;;
12970;SDS011;6550;48.650;8.774;2023-04-24T14:42:06;8.03;;;1.33;;
12970;SDS011;6550;48.650;8.774;2023-04-24T14:44:33;6.20;;;1.50;;
12970;SDS011;6550;48.650;8.774;2023-04-24T14:47:02;4.03;;;1.63;;
12970;SDS011;6550;48.650;8.774;2023-04-24T14:49:29;35.17;;;3.03;;
12970;SDS011;6550;48.650;8.774;2023-04-24T14:51:55;52.47;;;3.60;;
12970;SDS011;6550;48.650;8.774;2023-04-24T14:54:22;57.60;;;3.93;;
12970;SDS011;6550;48.650;8.774;2023-04-24T14:56:52;64.23;;;4.63;;
12970;SDS011;6550;48.650;8.774;2023-04-24T14:59:20;40.73;;;3.33;;
12970;SDS011;6550;48.650;8.774;2023-04-24T15:01:46;44.30;;;3.07;;
12970;SDS011;6550;48.650;8.774;2023-04-24T15:04:36;59.75;;;4.32;;
12970;SDS011;6550;48.650;8.774;2023-04-24T15:07:03;43.60;;;3.53;;
12970;SDS011;6550;48.650;8.774;2023-04-24T15:09:32;24.03;;;2.70;;
12970;SDS011;6550;48.650;8.774;2023-04-24T15:11:59;17.97;;;1.77;;
12970;SDS011;6550;48.650;8.774;2023-04-24T15:14:28;7.60;;;1.33;;
12970;SDS011;6550;48.650;8.774;2023-04-24T15:16:55;8.07;;;1.20;;
12970;SDS011;6550;48.650;8.774;2023-04-24T15:19:24;16.20;;;1.80;;
12970;SDS011;6550;48.650;8.774;2023-04-24T15:21:51;13.17;;;2.57;;
12970;SDS011;6550;48.650;8.774;2023-04-24T15:24:18;20.30;;;2.40;;